Time;durP1;ratioP1;P1;durP2;ratioP2;P2;SDS_P1;SDS_P2;PMS_P1;PMS_P2;Temp;Humidity;BMP_temperature;BMP_pressure;BME280_temperature;BME280_humidity;BME280_pressure;Samples;Min_cycle;Max_cycle;Signal;HPM_P1;HPM_P2
2022/12/28 00:01:31;;;;;;;10.02;3.50;;;;;;;;;;5047290;28;20051;-77
2022/12/28 00:04:01;;;;;;;12.38;3.50;;;;;;;;;;5042046;28;20075;-78
2022/12/28 00:06:28;;;;;;;13.95;3.90;;;;;;;;;;5043812;28;20025;-77
2022/12/28 00:08:54;;;;;;;14.20;4.63;;;;;;;;;;5039080;28;20390;-77
2022/12/28 00:11:21;;;;;;;8.93;3.33;;;;;;;;;;5038729;28;20041;-77
2022/12/28 00:13:48;;;;;;;11.38;3.85;;;;;;;;;;5052335;28;20029;-77
2022/12/28 00:16:31;;;;;;;10.45;3.67;;;;;;;;;;5043203;28;20087;-77
2022/12/28 00:18:59;;;;;;;9.45;3.42;;;;;;;;;;5042641;28;20095;-77
2022/12/28 00:21:26;;;;;;;8.23;4.30;;;;;;;;;;5045270;28;20033;-77
2022/12/28 00:23:53;;;;;;;9.68;3.55;;;;;;;;;;5038234;28;20037;-77
2022/12/28 00:26:23;;;;;;;10.07;3.50;;;;;;;;;;5047165;28;20116;-77
2022/12/28 00:28:49;;;;;;;13.43;3.53;;;;;;;;;;5048478;28;20655;-78
2022/12/28 00:31:15;;;;;;;9.55;3.75;;;;;;;;;;5040739;28;20392;-78
2022/12/28 00:33:42;;;;;;;12.02;4.28;;;;;;;;;;5044182;28;20021;-77
2022/12/28 00:36:10;;;;;;;9.80;3.67;;;;;;;;;;5059582;28;20476;-77
2022/12/28 00:38:37;;;;;;;10.43;3.10;;;;;;;;;;5050358;28;20566;-76
2022/12/28 00:41:03;;;;;;;9.07;3.70;;;;;;;;;;5049265;28;20423;-75
2022/12/28 00:43:29;;;;;;;14.07;4.78;;;;;;;;;;5045598;28;20032;-77
2022/12/28 00:45:55;;;;;;;9.15;3.47;;;;;;;;;;5051841;28;20774;-77
2022/12/28 00:48:22;;;;;;;9.02;5.07;;;;;;;;;;5048775;28;20025;-76
2022/12/28 00:50:48;;;;;;;9.07;4.10;;;;;;;;;;5049552;28;20021;-76
2022/12/28 00:53:14;;;;;;;10.68;4.13;;;;;;;;;;5046905;28;20029;-76
2022/12/28 00:55:41;;;;;;;14.00;3.40;;;;;;;;;;5054070;28;20580;-77
2022/12/28 00:58:07;;;;;;;9.52;4.00;;;;;;;;;;5045554;28;20444;-76
2022/12/28 01:00:33;;;;;;;14.75;4.22;;;;;;;;;;5047132;28;20033;-77
2022/12/28 01:02:59;;;;;;;18.10;4.82;;;;;;;;;;5041347;28;20021;-76
2022/12/28 01:05:25;;;;;;;11.02;3.80;;;;;;;;;;5047702;28;20021;-75
2022/12/28 01:07:52;;;;;;;10.77;4.22;;;;;;;;;;5046846;28;20104;-77
2022/12/28 01:10:18;;;;;;;11.95;4.10;;;;;;;;;;5051366;28;20029;-76
2022/12/28 01:12:44;;;;;;;18.08;4.07;;;;;;;;;;5045260;28;20480;-77
2022/12/28 01:15:11;;;;;;;9.18;3.92;;;;;;;;;;5042767;28;20009;-75
2022/12/28 01:17:37;;;;;;;11.23;4.30;;;;;;;;;;5045536;28;20033;-76
2022/12/28 01:20:04;;;;;;;14.48;4.32;;;;;;;;;;5049891;28;20036;-77
2022/12/28 01:22:30;;;;;;;13.13;4.47;;;;;;;;;;5047421;28;20037;-76
2022/12/28 01:24:56;;;;;;;9.63;3.30;;;;;;;;;;5052011;28;20075;-77
2022/12/28 01:27:22;;;;;;;13.95;5.20;;;;;;;;;;5049875;28;20386;-76
2022/12/28 01:29:48;;;;;;;11.02;3.50;;;;;;;;;;5051362;28;20031;-76
2022/12/28 01:32:14;;;;;;;11.73;3.80;;;;;;;;;;5050866;28;20433;-78
2022/12/28 01:34:40;;;;;;;11.25;3.50;;;;;;;;;;5040765;28;20369;-74
2022/12/28 01:37:06;;;;;;;10.23;4.65;;;;;;;;;;5047431;28;20474;-76
2022/12/28 01:39:32;;;;;;;7.05;3.33;;;;;;;;;;5049212;28;20025;-76
2022/12/28 01:41:58;;;;;;;12.52;4.18;;;;;;;;;;5049384;28;20078;-76
2022/12/28 01:44:24;;;;;;;12.35;3.70;;;;;;;;;;5052327;28;20024;-76
2022/12/28 01:47:05;;;;;;;11.32;3.88;;;;;;;;;;5046495;28;20036;-76
2022/12/28 01:49:53;;;;;;;9.65;3.35;;;;;;;;;;5048535;28;20025;-76
2022/12/28 01:52:22;;;;;;;9.80;4.22;;;;;;;;;;5049064;28;20040;-77
2022/12/28 01:54:50;;;;;;;10.45;3.53;;;;;;;;;;5037082;28;20087;-75
2022/12/28 01:57:18;;;;;;;8.60;3.45;;;;;;;;;;5047799;28;20024;-77
2022/12/28 01:59:49;;;;;;;10.23;3.60;;;;;;;;;;5047741;28;20543;-75
2022/12/28 02:02:15;;;;;;;12.02;4.15;;;;;;;;;;5036927;28;20368;-76
2022/12/28 02:04:41;;;;;;;12.63;3.60;;;;;;;;;;5041213;28;20035;-76
2022/12/28 02:07:07;;;;;;;9.73;3.40;;;;;;;;;;5048514;28;20024;-76
2022/12/28 02:09:38;;;;;;;10.82;2.97;;;;;;;;;;5050576;28;20024;-76
2022/12/28 02:12:04;;;;;;;9.00;3.13;;;;;;;;;;5054383;28;20033;-76
2022/12/28 02:14:31;;;;;;;9.00;3.40;;;;;;;;;;5049419;28;20079;-76
2022/12/28 02:16:57;;;;;;;10.75;3.17;;;;;;;;;;5048276;28;20029;-77
2022/12/28 02:19:44;;;;;;;16.00;4.03;;;;;;;;;;5039965;28;20387;-76
2022/12/28 02:22:23;;;;;;;12.37;3.90;;;;;;;;;;5049499;28;20032;-77
2022/12/28 02:25:12;;;;;;;12.68;3.50;;;;;;;;;;5042714;28;20032;-76
2022/12/28 02:27:38;;;;;;;13.10;4.15;;;;;;;;;;5041739;28;20041;-77
2022/12/28 02:30:08;;;;;;;6.57;3.30;;;;;;;;;;5046063;28;20032;-76
2022/12/28 02:32:34;;;;;;;8.43;3.70;;;;;;;;;;5041961;28;20552;-75
2022/12/28 02:35:00;;;;;;;7.80;3.97;;;;;;;;;;5045767;28;20067;-77
2022/12/28 02:37:30;;;;;;;8.25;3.72;;;;;;;;;;5045787;28;20059;-77
2022/12/28 02:39:58;;;;;;;10.93;3.63;;;;;;;;;;5044416;28;20357;-79
2022/12/28 02:42:25;;;;;;;9.52;3.03;;;;;;;;;;5043356;28;20029;-77
2022/12/28 02:50:24;;;;;;;13.47;3.87;;;;;;;;;;5046703;28;20530;-76
2022/12/28 02:52:50;;;;;;;8.73;3.58;;;;;;;;;;5044785;28;20174;-77
2022/12/28 02:58:29;;;;;;;7.50;3.05;;;;;;;;;;4983620;28;20042;-75
2022/12/28 03:01:14;;;;;;;10.77;3.65;;;;;;;;;;4980040;28;20034;-77
2022/12/28 03:03:46;;;;;;;7.40;3.10;;;;;;;;;;5018100;28;20079;-77
2022/12/28 03:09:25;;;;;;;4.75;3.00;;;;;;;;;;5039499;28;20044;-77
2022/12/28 03:12:10;;;;;;;7.32;3.17;;;;;;;;;;5043048;28;20498;-76
2022/12/28 03:14:39;;;;;;;7.05;3.20;;;;;;;;;;5045956;28;20044;-77
2022/12/28 03:31:06;;;;;;;10.65;3.40;;;;;;;;;;5042429;28;20056;-76
2022/12/28 03:33:38;;;;;;;11.90;3.47;;;;;;;;;;5040964;28;20025;-75
2022/12/28 03:36:16;;;;;;;7.88;3.05;;;;;;;;;;5041118;28;20363;-76
2022/12/28 03:38:43;;;;;;;9.40;3.15;;;;;;;;;;5037864;28;20037;-77
2022/12/28 03:41:14;;;;;;;12.30;4.85;;;;;;;;;;5043570;28;20033;-76
2022/12/28 03:43:45;;;;;;;13.20;3.55;;;;;;;;;;5046680;28;20502;-76
2022/12/28 03:46:11;;;;;;;9.63;3.03;;;;;;;;;;5045040;28;20029;-77
2022/12/28 03:48:38;;;;;;;16.70;3.38;;;;;;;;;;5039776;28;20609;-77
2022/12/28 03:51:04;;;;;;;6.45;3.10;;;;;;;;;;5041122;28;20450;-76
2022/12/28 03:53:35;;;;;;;5.78;2.72;;;;;;;;;;5036845;28;20152;-76
2022/12/28 03:56:06;;;;;;;4.22;3.58;;;;;;;;;;5040678;28;20067;-76
2022/12/28 03:58:32;;;;;;;6.60;3.75;;;;;;;;;;5048139;28;20033;-77
2022/12/28 04:00:58;;;;;;;13.30;4.68;;;;;;;;;;5045369;28;20025;-76
2022/12/28 04:03:24;;;;;;;16.10;4.47;;;;;;;;;;5040873;28;20021;-76
2022/12/28 04:05:50;;;;;;;9.18;3.17;;;;;;;;;;5038806;28;20051;-77
2022/12/28 04:08:16;;;;;;;8.00;3.25;;;;;;;;;;5044387;28;20021;-76
2022/12/28 04:10:42;;;;;;;11.80;3.42;;;;;;;;;;5046196;28;20036;-76
2022/12/28 04:13:08;;;;;;;9.35;3.60;;;;;;;;;;5050205;28;20033;-76
2022/12/28 04:15:34;;;;;;;5.88;2.63;;;;;;;;;;5043774;28;20462;-75
2022/12/28 04:18:00;;;;;;;5.97;2.92;;;;;;;;;;5049831;28;20665;-77
2022/12/28 04:20:26;;;;;;;14.70;3.38;;;;;;;;;;5050852;28;20037;-76
2022/12/28 04:22:52;;;;;;;7.90;2.85;;;;;;;;;;5035683;28;20072;-77
2022/12/28 04:25:19;;;;;;;9.07;2.90;;;;;;;;;;5046708;28;20056;-76
2022/12/28 04:27:45;;;;;;;11.05;3.08;;;;;;;;;;5047240;28;20049;-76
2022/12/28 04:30:11;;;;;;;6.85;3.53;;;;;;;;;;5051182;28;20029;-76
2022/12/28 04:32:37;;;;;;;4.60;2.50;;;;;;;;;;5051189;28;20037;-76
2022/12/28 04:35:04;;;;;;;11.30;2.65;;;;;;;;;;5043900;28;20044;-77
2022/12/28 04:37:30;;;;;;;6.47;2.92;;;;;;;;;;5044416;28;20048;-76
2022/12/28 04:39:56;;;;;;;7.93;3.75;;;;;;;;;;5045066;28;20036;-77
2022/12/28 04:42:22;;;;;;;9.77;3.25;;;;;;;;;;5043558;28;20153;-77
2022/12/28 04:44:48;;;;;;;11.00;4.28;;;;;;;;;;5046762;28;20413;-76
2022/12/28 04:47:14;;;;;;;12.18;3.58;;;;;;;;;;5052368;28;20082;-78
2022/12/28 04:49:40;;;;;;;9.85;3.50;;;;;;;;;;5045469;28;20052;-76
2022/12/28 04:52:06;;;;;;;6.55;2.80;;;;;;;;;;5049546;28;20056;-75
2022/12/28 04:54:33;;;;;;;13.05;3.25;;;;;;;;;;5060413;28;20035;-76
2022/12/28 04:56:59;;;;;;;8.93;3.17;;;;;;;;;;5041939;28;20028;-75
2022/12/28 04:59:25;;;;;;;10.98;3.15;;;;;;;;;;5040634;28;20356;-75
2022/12/28 05:01:51;;;;;;;9.82;3.22;;;;;;;;;;5042723;28;20302;-75
2022/12/28 05:04:17;;;;;;;8.00;3.30;;;;;;;;;;5047001;28;20410;-76
2022/12/28 05:06:43;;;;;;;7.50;2.58;;;;;;;;;;5042477;28;20046;-77
2022/12/28 05:09:09;;;;;;;8.68;2.90;;;;;;;;;;5054606;28;20033;-75
2022/12/28 05:11:35;;;;;;;6.40;2.97;;;;;;;;;;5059501;28;20077;-76
2022/12/28 05:14:01;;;;;;;6.95;2.58;;;;;;;;;;5046130;28;20390;-76
2022/12/28 05:16:28;;;;;;;10.25;3.33;;;;;;;;;;5047543;28;20021;-77
2022/12/28 05:18:56;;;;;;;7.32;3.00;;;;;;;;;;5045777;28;20067;-77
2022/12/28 05:21:24;;;;;;;11.50;3.10;;;;;;;;;;5041132;28;20401;-76
2022/12/28 05:23:50;;;;;;;7.35;2.78;;;;;;;;;;5044177;28;20032;-76
2022/12/28 05:26:17;;;;;;;10.43;3.00;;;;;;;;;;5048901;28;20045;-75
2022/12/28 05:28:43;;;;;;;10.07;2.65;;;;;;;;;;5042064;28;20120;-75
2022/12/28 05:31:14;;;;;;;7.07;2.10;;;;;;;;;;5050008;28;20032;-76
2022/12/28 05:33:41;;;;;;;9.30;3.13;;;;;;;;;;5045542;28;20530;-76
2022/12/28 05:36:11;;;;;;;7.57;2.50;;;;;;;;;;5044609;28;20036;-76
2022/12/28 05:38:37;;;;;;;4.60;2.33;;;;;;;;;;5041077;28;20359;-76
2022/12/28 05:41:04;;;;;;;14.50;2.85;;;;;;;;;;5043857;28;20040;-75
2022/12/28 05:43:30;;;;;;;9.68;2.80;;;;;;;;;;5042550;28;20029;-75
2022/12/28 05:46:00;;;;;;;8.15;3.33;;;;;;;;;;5041041;28;20029;-76
2022/12/28 05:48:26;;;;;;;11.77;2.72;;;;;;;;;;5041005;28;20483;-77
2022/12/28 05:50:52;;;;;;;8.23;3.05;;;;;;;;;;5037053;28;20025;-76
2022/12/28 05:53:18;;;;;;;8.25;3.60;;;;;;;;;;5050227;28;20155;-75
2022/12/28 05:55:44;;;;;;;5.45;2.50;;;;;;;;;;5050737;28;20040;-75
2022/12/28 05:58:10;;;;;;;7.88;2.53;;;;;;;;;;5044287;28;20342;-77
2022/12/28 06:00:36;;;;;;;7.43;2.78;;;;;;;;;;5044386;28;20032;-76
2022/12/28 06:03:02;;;;;;;10.77;2.58;;;;;;;;;;5046925;28;20100;-76
2022/12/28 06:05:28;;;;;;;12.35;3.67;;;;;;;;;;5039964;28;20028;-77
2022/12/28 06:07:54;;;;;;;9.55;2.97;;;;;;;;;;5036047;28;20025;-76
2022/12/28 06:10:20;;;;;;;6.43;3.08;;;;;;;;;;5042728;28;20136;-76
2022/12/28 06:12:46;;;;;;;6.97;2.58;;;;;;;;;;5045352;28;20032;-75
2022/12/28 06:15:12;;;;;;;7.93;3.30;;;;;;;;;;5043582;28;20060;-76
2022/12/28 06:17:38;;;;;;;8.50;2.63;;;;;;;;;;5043073;28;20029;-77
2022/12/28 06:20:05;;;;;;;4.75;2.63;;;;;;;;;;5043225;28;20025;-76
2022/12/28 06:22:31;;;;;;;10.43;2.85;;;;;;;;;;5042906;28;20024;-76
2022/12/28 06:24:57;;;;;;;10.82;3.20;;;;;;;;;;5042667;28;20025;-76
2022/12/28 06:27:23;;;;;;;5.20;2.80;;;;;;;;;;5046253;28;20207;-75
2022/12/28 06:29:51;;;;;;;7.03;2.83;;;;;;;;;;5041972;28;20048;-76
2022/12/28 06:32:27;;;;;;;12.90;4.13;;;;;;;;;;5038380;28;20426;-75
2022/12/28 06:34:53;;;;;;;9.80;3.75;;;;;;;;;;5045213;28;20234;-77
2022/12/28 06:37:19;;;;;;;12.38;3.40;;;;;;;;;;5033073;28;20522;-75
2022/12/28 06:39:45;;;;;;;15.43;3.67;;;;;;;;;;5042163;28;20025;-74
2022/12/28 06:42:11;;;;;;;9.23;3.10;;;;;;;;;;5043318;28;20108;-75
2022/12/28 06:44:37;;;;;;;9.27;4.18;;;;;;;;;;5047799;28;20081;-76
2022/12/28 06:47:03;;;;;;;11.07;3.35;;;;;;;;;;5046587;28;20109;-76
2022/12/28 06:49:30;;;;;;;14.07;3.97;;;;;;;;;;5041326;28;20542;-76
2022/12/28 06:51:56;;;;;;;12.38;3.47;;;;;;;;;;5041036;28;20026;-76
2022/12/28 06:54:22;;;;;;;11.50;4.63;;;;;;;;;;5044667;28;20025;-75
2022/12/28 06:56:48;;;;;;;14.57;3.97;;;;;;;;;;5043332;28;20117;-74
2022/12/28 06:59:14;;;;;;;13.75;3.45;;;;;;;;;;5033786;28;20037;-75
2022/12/28 07:01:43;;;;;;;9.02;3.15;;;;;;;;;;5038925;28;20161;-76
2022/12/28 07:04:09;;;;;;;11.60;3.42;;;;;;;;;;5042745;28;20533;-75
2022/12/28 07:06:42;;;;;;;11.35;3.22;;;;;;;;;;5035264;28;20104;-75
2022/12/28 07:09:11;;;;;;;9.70;3.47;;;;;;;;;;5043246;28;20028;-76
2022/12/28 07:11:37;;;;;;;14.40;2.72;;;;;;;;;;5034852;28;20100;-77
2022/12/28 07:14:03;;;;;;;12.15;3.30;;;;;;;;;;5041926;28;20028;-75
2022/12/28 07:16:29;;;;;;;12.93;3.55;;;;;;;;;;5036871;28;20039;-77
2022/12/28 07:18:55;;;;;;;7.93;3.13;;;;;;;;;;5037869;28;20391;-76
2022/12/28 07:21:23;;;;;;;9.55;3.00;;;;;;;;;;5041433;28;20371;-76
2022/12/28 07:23:49;;;;;;;6.10;3.30;;;;;;;;;;5045233;28;20036;-76
2022/12/28 07:26:19;;;;;;;6.97;2.70;;;;;;;;;;5039627;28;20041;-75
2022/12/28 07:28:45;;;;;;;7.30;3.17;;;;;;;;;;5043987;28;20053;-77
2022/12/28 07:31:13;;;;;;;5.65;2.25;;;;;;;;;;5045280;28;20088;-77
2022/12/28 07:33:39;;;;;;;7.30;2.50;;;;;;;;;;5046554;28;20113;-77
2022/12/28 07:36:07;;;;;;;8.98;3.83;;;;;;;;;;5049197;28;20790;-76
2022/12/28 07:38:33;;;;;;;9.63;2.30;;;;;;;;;;5043150;28;20029;-76
2022/12/28 07:41:02;;;;;;;7.85;2.58;;;;;;;;;;5043087;28;20039;-76
2022/12/28 07:43:29;;;;;;;8.90;2.53;;;;;;;;;;5045118;28;20033;-77
2022/12/28 07:46:01;;;;;;;8.20;2.42;;;;;;;;;;5044232;28;20025;-76
2022/12/28 07:48:29;;;;;;;10.13;3.53;;;;;;;;;;5049257;28;20387;-77
2022/12/28 07:50:55;;;;;;;3.90;2.20;;;;;;;;;;5045286;28;20026;-75
2022/12/28 07:53:21;;;;;;;2.40;1.88;;;;;;;;;;5042290;28;21027;-76
2022/12/28 07:55:54;;;;;;;4.18;2.35;;;;;;;;;;5045158;28;20676;-76
2022/12/28 07:58:20;;;;;;;2.05;1.60;;;;;;;;;;5048996;28;20037;-76
2022/12/28 08:00:47;;;;;;;3.65;2.00;;;;;;;;;;5046577;28;20097;-76
2022/12/28 08:03:13;;;;;;;2.33;1.50;;;;;;;;;;5048187;28;20295;-77
2022/12/28 08:05:39;;;;;;;3.10;2.00;;;;;;;;;;5052051;28;20131;-77
2022/12/28 08:08:05;;;;;;;3.55;1.60;;;;;;;;;;5052437;28;20051;-75
2022/12/28 08:10:32;;;;;;;2.00;1.80;;;;;;;;;;5052324;28;20029;-76
2022/12/28 08:12:59;;;;;;;2.38;2.17;;;;;;;;;;5044688;28;20060;-77
2022/12/28 08:15:25;;;;;;;2.55;1.38;;;;;;;;;;5051984;28;20467;-80
2022/12/28 08:17:53;;;;;;;2.03;1.60;;;;;;;;;;5049091;28;20029;-76
2022/12/28 08:20:19;;;;;;;3.50;1.52;;;;;;;;;;5045636;28;20033;-81
2022/12/28 08:22:45;;;;;;;2.72;1.38;;;;;;;;;;5050166;28;20044;-77
2022/12/28 08:25:14;;;;;;;3.05;2.22;;;;;;;;;;5044580;28;20026;-75
2022/12/28 08:27:40;;;;;;;1.55;1.45;;;;;;;;;;5047652;28;20037;-78
2022/12/28 08:30:07;;;;;;;1.10;1.00;;;;;;;;;;5045012;28;20021;-76
2022/12/28 08:32:33;;;;;;;1.25;1.20;;;;;;;;;;5042110;28;20022;-77
2022/12/28 08:34:59;;;;;;;1.20;1.20;;;;;;;;;;5041662;28;20033;-77
2022/12/28 08:37:25;;;;;;;1.10;1.10;;;;;;;;;;5042053;28;20441;-76
2022/12/28 08:39:51;;;;;;;1.00;1.00;;;;;;;;;;5041254;28;20048;-76
2022/12/28 08:42:17;;;;;;;1.00;1.00;;;;;;;;;;5037582;28;20537;-77
2022/12/28 08:44:43;;;;;;;1.20;1.20;;;;;;;;;;5043182;28;20398;-76
2022/12/28 08:47:09;;;;;;;0.90;0.90;;;;;;;;;;5040641;28;20022;-76
2022/12/28 08:49:36;;;;;;;0.90;0.90;;;;;;;;;;5037755;28;20033;-76
2022/12/28 08:52:02;;;;;;;1.00;1.00;;;;;;;;;;5044029;28;20100;-76
2022/12/28 08:54:28;;;;;;;1.40;1.30;;;;;;;;;;5041910;28;20041;-78
2022/12/28 08:56:54;;;;;;;1.40;1.30;;;;;;;;;;5041357;28;20460;-77
2022/12/28 08:59:20;;;;;;;1.50;1.40;;;;;;;;;;5043118;28;20437;-76
2022/12/28 09:01:46;;;;;;;1.60;1.50;;;;;;;;;;5042554;28;20100;-78
2022/12/28 09:04:14;;;;;;;1.60;1.50;;;;;;;;;;5042376;28;20492;-80
2022/12/28 09:06:40;;;;;;;2.08;1.90;;;;;;;;;;5040292;28;20060;-77
2022/12/28 09:09:07;;;;;;;1.52;1.40;;;;;;;;;;5039506;28;20024;-77
2022/12/28 09:11:34;;;;;;;1.50;1.40;;;;;;;;;;5046484;28;20029;-78
2022/12/28 09:14:01;;;;;;;1.42;1.33;;;;;;;;;;5047045;28;20037;-76
2022/12/28 09:16:27;;;;;;;1.67;1.58;;;;;;;;;;5044687;28;20038;-77
2022/12/28 09:18:58;;;;;;;1.52;1.42;;;;;;;;;;5046482;28;20629;-77
2022/12/28 09:21:25;;;;;;;1.30;1.30;;;;;;;;;;5048164;28;20040;-77
2022/12/28 09:23:51;;;;;;;1.83;1.70;;;;;;;;;;5047742;28;20122;-77
2022/12/28 09:26:18;;;;;;;1.40;1.30;;;;;;;;;;5042288;28;20683;-78
2022/12/28 09:28:45;;;;;;;1.25;1.20;;;;;;;;;;5042233;28;20029;-77
2022/12/28 09:31:11;;;;;;;1.30;1.20;;;;;;;;;;5039844;28;20033;-77
2022/12/28 09:36:23;;;;;;;1.20;1.10;;;;;;;;;;5038884;28;20064;-77
2022/12/28 09:38:50;;;;;;;1.48;1.30;;;;;;;;;;5039464;28;20483;-77
2022/12/28 09:41:26;;;;;;;1.30;1.20;;;;;;;;;;5041798;28;20029;-78
2022/12/28 09:43:55;;;;;;;0.90;0.90;;;;;;;;;;5042906;28;20124;-77
2022/12/28 09:46:22;;;;;;;0.95;0.95;;;;;;;;;;5038115;28;21020;-78
2022/12/28 09:48:55;;;;;;;1.05;1.05;;;;;;;;;;5041814;28;20029;-77
2022/12/28 09:51:24;;;;;;;1.10;1.10;;;;;;;;;;5041733;28;20060;-77
2022/12/28 09:53:50;;;;;;;1.00;1.00;;;;;;;;;;5040866;28;20109;-76
2022/12/28 09:56:33;;;;;;;1.10;1.10;;;;;;;;;;5041135;28;20063;-77
2022/12/28 09:58:59;;;;;;;1.50;1.40;;;;;;;;;;5041716;28;20039;-77
2022/12/28 10:01:26;;;;;;;1.50;1.40;;;;;;;;;;5040345;28;20098;-77
2022/12/28 10:03:52;;;;;;;1.50;1.40;;;;;;;;;;5039473;28;20037;-77
2022/12/28 10:06:18;;;;;;;1.05;1.05;;;;;;;;;;5045897;28;20616;-77
2022/12/28 10:08:47;;;;;;;1.30;1.20;;;;;;;;;;5040742;28;20040;-76
2022/12/28 10:11:19;;;;;;;1.20;1.20;;;;;;;;;;5041937;28;20056;-77
2022/12/28 10:13:46;;;;;;;1.13;1.10;;;;;;;;;;5039934;28;20424;-77
2022/12/28 10:16:19;;;;;;;1.30;1.20;;;;;;;;;;5043414;28;20032;-79
2022/12/28 10:18:45;;;;;;;1.10;1.10;;;;;;;;;;5045656;28;20029;-77
2022/12/28 10:21:19;;;;;;;1.30;1.20;;;;;;;;;;5036996;28;20079;-76
2022/12/28 10:23:46;;;;;;;1.02;1.02;;;;;;;;;;5038201;28;20035;-78
2022/12/28 10:26:15;;;;;;;1.00;1.00;;;;;;;;;;5042640;28;20495;-76
2022/12/28 10:28:47;;;;;;;1.27;1.10;;;;;;;;;;5040654;28;20132;-78
2022/12/28 10:31:15;;;;;;;1.35;1.35;;;;;;;;;;5040095;28;20349;-76
2022/12/28 10:33:50;;;;;;;0.95;0.95;;;;;;;;;;5041018;28;20017;-77
2022/12/28 10:36:17;;;;;;;1.13;1.13;;;;;;;;;;5040048;28;20033;-78
2022/12/28 10:38:48;;;;;;;1.20;1.17;;;;;;;;;;5039129;28;20113;-77
2022/12/28 10:41:15;;;;;;;1.33;1.10;;;;;;;;;;5042227;28;20044;-77
2022/12/28 10:43:43;;;;;;;1.00;1.00;;;;;;;;;;5043565;28;20025;-77
2022/12/28 10:46:20;;;;;;;1.10;1.10;;;;;;;;;;5039496;28;20041;-78
2022/12/28 10:48:47;;;;;;;1.30;1.20;;;;;;;;;;5045329;28;20048;-78
2022/12/28 10:51:16;;;;;;;1.15;1.15;;;;;;;;;;5040242;28;20393;-76
2022/12/28 10:53:44;;;;;;;1.85;1.38;;;;;;;;;;5041866;28;20390;-77
2022/12/28 10:56:13;;;;;;;1.60;1.50;;;;;;;;;;5044378;28;20025;-77
2022/12/28 10:58:40;;;;;;;1.30;1.20;;;;;;;;;;5041702;28;20041;-77
2022/12/28 11:01:15;;;;;;;1.70;1.58;;;;;;;;;;5043423;28;20652;-77
2022/12/28 11:03:42;;;;;;;1.52;1.40;;;;;;;;;;5039549;28;20036;-78
2022/12/28 11:06:10;;;;;;;2.10;1.52;;;;;;;;;;5038561;28;20036;-77
2022/12/28 11:08:36;;;;;;;1.65;1.50;;;;;;;;;;5043043;28;20036;-76
2022/12/28 11:11:03;;;;;;;2.40;1.50;;;;;;;;;;5040868;28;20531;-77
2022/12/28 11:13:29;;;;;;;1.30;1.30;;;;;;;;;;5043492;28;20645;-77
2022/12/28 11:15:55;;;;;;;1.52;1.38;;;;;;;;;;5038206;28;20033;-78
2022/12/28 11:18:21;;;;;;;1.23;1.20;;;;;;;;;;5039296;28;20029;-77
2022/12/28 11:20:49;;;;;;;1.70;1.50;;;;;;;;;;5043670;28;20501;-79
2022/12/28 11:23:17;;;;;;;1.55;1.45;;;;;;;;;;5044336;28;20033;-76
2022/12/28 11:25:43;;;;;;;20.23;13.73;;;;;;;;;;5040941;28;20029;-76
2022/12/28 11:28:17;;;;;;;1.58;1.48;;;;;;;;;;5041081;28;20029;-77
2022/12/28 11:30:44;;;;;;;1.35;1.25;;;;;;;;;;5037180;28;20304;-77
2022/12/28 11:33:29;;;;;;;1.52;1.40;;;;;;;;;;5040011;28;20111;-77
2022/12/28 11:35:56;;;;;;;1.40;1.37;;;;;;;;;;5041875;28;20039;-78
2022/12/28 11:38:38;;;;;;;1.45;1.23;;;;;;;;;;5042329;28;20097;-77
2022/12/28 11:41:04;;;;;;;1.35;1.30;;;;;;;;;;5038732;28;20088;-77
2022/12/28 11:43:34;;;;;;;1.70;1.60;;;;;;;;;;5034766;28;20159;-78
2022/12/28 11:46:01;;;;;;;1.40;1.30;;;;;;;;;;5037845;28;20159;-78
2022/12/28 11:48:42;;;;;;;3.00;1.40;;;;;;;;;;5044534;28;20445;-77
2022/12/28 11:51:18;;;;;;;2.13;1.58;;;;;;;;;;5043321;28;20044;-77
2022/12/28 11:53:44;;;;;;;1.42;1.33;;;;;;;;;;5042951;28;20452;-77
2022/12/28 11:56:11;;;;;;;1.20;1.20;;;;;;;;;;5039791;28;20025;-78
2022/12/28 11:58:40;;;;;;;1.38;1.30;;;;;;;;;;5042354;28;20314;-76
2022/12/28 12:01:31;;;;;;;1.35;1.35;;;;;;;;;;5044592;28;20033;-78
2022/12/28 12:03:57;;;;;;;1.48;1.38;;;;;;;;;;5040957;28;20037;-77
2022/12/28 12:06:41;;;;;;;1.40;1.30;;;;;;;;;;5040986;28;20555;-77
2022/12/28 12:09:23;;;;;;;1.50;1.40;;;;;;;;;;5040081;28;20032;-78
2022/12/28 12:11:50;;;;;;;2.65;1.60;;;;;;;;;;5042570;28;20102;-79
2022/12/28 12:14:18;;;;;;;1.67;1.58;;;;;;;;;;5041371;28;20037;-77
2022/12/28 12:16:49;;;;;;;1.73;1.48;;;;;;;;;;5042701;28;20483;-77
2022/12/28 12:19:29;;;;;;;3.30;1.60;;;;;;;;;;5038012;28;20072;-77
2022/12/28 12:22:01;;;;;;;4.07;1.50;;;;;;;;;;5043490;28;20108;-79
2022/12/28 12:24:30;;;;;;;4.63;1.70;;;;;;;;;;5045358;28;20040;-77
2022/12/28 12:27:02;;;;;;;2.80;1.80;;;;;;;;;;5041880;28;20087;-78
2022/12/28 12:29:36;;;;;;;6.85;2.72;;;;;;;;;;5042669;28;20419;-77
2022/12/28 12:32:11;;;;;;;5.55;1.98;;;;;;;;;;5042657;28;20486;-77
2022/12/28 12:34:49;;;;;;;4.68;2.17;;;;;;;;;;5043566;28;20138;-79
2022/12/28 12:37:15;;;;;;;4.40;1.88;;;;;;;;;;5043756;28;20036;-77
2022/12/28 12:39:41;;;;;;;4.30;2.10;;;;;;;;;;5050407;28;20097;-78
2022/12/28 12:42:23;;;;;;;6.50;2.22;;;;;;;;;;5047548;28;20052;-77
2022/12/28 12:44:54;;;;;;;5.70;2.95;;;;;;;;;;5042805;28;20060;-77
2022/12/28 12:47:41;;;;;;;10.52;3.55;;;;;;;;;;5044115;28;20025;-78
2022/12/28 12:50:13;;;;;;;8.88;2.72;;;;;;;;;;5022336;28;20041;-78
2022/12/28 12:52:42;;;;;;;9.07;3.70;;;;;;;;;;5047438;28;20075;-79
2022/12/28 12:55:08;;;;;;;11.10;4.05;;;;;;;;;;5045768;28;20020;-76
2022/12/28 12:57:34;;;;;;;11.40;3.38;;;;;;;;;;5049863;28;20255;-77
2022/12/28 13:00:15;;;;;;;9.65;3.13;;;;;;;;;;5048480;28;20017;-77
2022/12/28 13:03:17;;;;;;;8.75;3.30;;;;;;;;;;5052408;28;20059;-78
2022/12/28 13:05:56;;;;;;;8.85;2.97;;;;;;;;;;5011807;28;20129;-79
2022/12/28 13:08:25;;;;;;;13.13;3.22;;;;;;;;;;5041729;28;20041;-77
2022/12/28 13:10:51;;;;;;;11.32;3.47;;;;;;;;;;5042945;28;20082;-78
2022/12/28 13:13:18;;;;;;;17.25;3.47;;;;;;;;;;5048615;28;20452;-78
2022/12/28 13:15:45;;;;;;;8.32;3.35;;;;;;;;;;5046307;28;20060;-77
2022/12/28 13:18:18;;;;;;;11.13;3.67;;;;;;;;;;5045535;28;20021;-77
2022/12/28 13:20:54;;;;;;;14.57;4.07;;;;;;;;;;5047378;28;20514;-78
2022/12/28 13:23:21;;;;;;;14.57;4.20;;;;;;;;;;5049217;28;20022;-77
2022/12/28 13:25:49;;;;;;;13.75;3.75;;;;;;;;;;5051328;28;20075;-77
2022/12/28 13:28:20;;;;;;;14.80;4.40;;;;;;;;;;5046198;28;20026;-78
2022/12/28 13:31:00;;;;;;;12.23;4.20;;;;;;;;;;5050409;28;20047;-78
2022/12/28 13:33:28;;;;;;;10.38;4.28;;;;;;;;;;5051933;28;20556;-79
2022/12/28 13:36:10;;;;;;;9.38;3.95;;;;;;;;;;5052423;28;20093;-79
2022/12/28 13:38:37;;;;;;;9.15;3.88;;;;;;;;;;5057848;28;20028;-77
2022/12/28 13:41:03;;;;;;;10.68;3.63;;;;;;;;;;5055224;28;20025;-79
2022/12/28 13:43:41;;;;;;;10.43;3.25;;;;;;;;;;5051770;28;20170;-76
2022/12/28 13:46:09;;;;;;;9.98;3.30;;;;;;;;;;5052124;28;20025;-79
2022/12/28 13:48:38;;;;;;;13.48;3.58;;;;;;;;;;5059933;28;20048;-79
2022/12/28 13:51:04;;;;;;;6.47;2.90;;;;;;;;;;5056897;28;20052;-79
2022/12/28 13:53:31;;;;;;;13.30;3.63;;;;;;;;;;5062387;28;20025;-76
2022/12/28 13:55:59;;;;;;;12.00;3.40;;;;;;;;;;5060554;28;20037;-78
2022/12/28 13:58:29;;;;;;;21.40;4.95;;;;;;;;;;5058185;28;20088;-77
2022/12/28 14:00:57;;;;;;;12.23;3.58;;;;;;;;;;5057387;28;20041;-78
2022/12/28 14:03:23;;;;;;;10.57;3.22;;;;;;;;;;5059515;28;20033;-77
2022/12/28 14:05:53;;;;;;;9.77;3.72;;;;;;;;;;5059587;28;20021;-79
2022/12/28 14:08:21;;;;;;;17.10;5.07;;;;;;;;;;5058525;28;20403;-79
2022/12/28 14:10:47;;;;;;;15.20;3.20;;;;;;;;;;5060164;28;20017;-77
2022/12/28 14:13:13;;;;;;;11.95;3.65;;;;;;;;;;5050991;28;20092;-77
2022/12/28 14:15:40;;;;;;;10.27;2.80;;;;;;;;;;5048347;28;20036;-79
2022/12/28 14:18:06;;;;;;;10.50;3.13;;;;;;;;;;5052180;28;20028;-78
2022/12/28 14:20:32;;;;;;;8.63;3.00;;;;;;;;;;5057137;28;20045;-80
2022/12/28 14:23:17;;;;;;;11.13;3.80;;;;;;;;;;5056982;28;20089;-79
2022/12/28 14:25:43;;;;;;;12.33;3.40;;;;;;;;;;5046175;28;20033;-78
2022/12/28 14:28:17;;;;;;;12.35;3.33;;;;;;;;;;5044520;28;20032;-77
2022/12/28 14:30:49;;;;;;;6.43;2.78;;;;;;;;;;5046310;28;20496;-78
2022/12/28 14:33:24;;;;;;;7.30;2.80;;;;;;;;;;5051832;28;20029;-77
2022/12/28 14:35:54;;;;;;;11.38;3.03;;;;;;;;;;5052195;28;20063;-77
2022/12/28 14:38:22;;;;;;;9.00;2.58;;;;;;;;;;5053129;28;20059;-79
2022/12/28 14:41:06;;;;;;;9.70;3.38;;;;;;;;;;5053893;28;20026;-76
2022/12/28 14:43:33;;;;;;;9.07;3.25;;;;;;;;;;5054210;28;20029;-77
2022/12/28 14:46:20;;;;;;;13.30;3.40;;;;;;;;;;5054025;28;20052;-77
2022/12/28 14:48:46;;;;;;;7.93;2.60;;;;;;;;;;5043874;28;20033;-77
2022/12/28 14:51:15;;;;;;;8.85;2.92;;;;;;;;;;5054568;28;20449;-79
2022/12/28 14:53:41;;;;;;;11.32;3.70;;;;;;;;;;5051956;28;20033;-76
2022/12/28 14:56:15;;;;;;;7.40;3.72;;;;;;;;;;5052698;28;20087;-77
2022/12/28 14:58:44;;;;;;;10.02;3.90;;;;;;;;;;5049799;28;20029;-77
2022/12/28 15:01:10;;;;;;;16.48;3.53;;;;;;;;;;5051837;28;20043;-78
2022/12/28 15:03:56;;;;;;;6.80;3.22;;;;;;;;;;5050985;28;20434;-76
2022/12/28 15:06:25;;;;;;;9.90;3.85;;;;;;;;;;5052593;28;20033;-77
2022/12/28 15:08:52;;;;;;;9.00;2.95;;;;;;;;;;5055752;28;20167;-77
2022/12/28 15:11:19;;;;;;;10.20;3.08;;;;;;;;;;5052971;28;20032;-77
2022/12/28 15:13:46;;;;;;;10.80;3.83;;;;;;;;;;5051700;28;20033;-76
2022/12/28 15:16:12;;;;;;;10.45;3.40;;;;;;;;;;5051126;28;20035;-76